KAAF/AAF METAR and TAF weather

Enter ICAO airport designator
Station Type Date Time Source
KAAF METAR 2021/05/14 12:53 UTC NOAA

KAAF 141253Z AUTO 05007KT 10SM CLR 21/14 A3020 RMK AO2 SLP225 T02060139


Station Type Date Time Source
KAAF Decoded METAR 2021/05/14 12:53 UTC NOAA

APALACHICOLA MUNICIPAL AIRPORT, FL, United States (KAAF) 29-44N 085-01W 5M
May 14, 2021 - 08:53 AM EDT / 2021.05.14 1253 UTC
Wind: from the NE (050 degrees) at 8 MPH (7 KT):0
Visibility: 10 mile(s):0
Sky conditions: clear
Temperature: 69.1 F (20.6 C)
Dew Point: 57.0 F (13.9 C)
Relative Humidity: 65%
Pressure (altimeter): 30.2 in. Hg (1022 hPa)
ob: KAAF 141253Z AUTO 05007KT 10SM CLR 21/14 A3020 RMK AO2 SLP225 T02060139
cycle: 13

Station Type Date Time Source
KAAF TAF UTC NOAA

Error!

Example: see airport list